sensor_id;sensor_type;location;lat;lon;timestamp;P1;durP1;ratioP1;P2;durP2;ratioP2
19205;SDS011;59358;52.134;5.596;2023-04-25T00:01:16;22.77;;;7.40;;
19205;SDS011;59358;52.134;5.596;2023-04-25T00:03:43;22.45;;;7.78;;
19205;SDS011;59358;52.134;5.596;2023-04-25T00:06:10;30.98;;;8.73;;
19205;SDS011;59358;52.134;5.596;2023-04-25T00:08:38;26.67;;;8.52;;
19205;SDS011;59358;52.134;5.596;2023-04-25T00:11:05;25.45;;;7.78;;
19205;SDS011;59358;52.134;5.596;2023-04-25T00:13:32;27.70;;;8.15;;
19205;SDS011;59358;52.134;5.596;2023-04-25T00:16:01;24.92;;;8.40;;
19205;SDS011;59358;52.134;5.596;2023-04-25T00:18:29;33.40;;;8.30;;
19205;SDS011;59358;52.134;5.596;2023-04-25T00:20:58;34.33;;;8.65;;
19205;SDS011;59358;52.134;5.596;2023-04-25T00:23:25;37.47;;;9.45;;
19205;SDS011;59358;52.134;5.596;2023-04-25T00:25:51;39.85;;;9.73;;
19205;SDS011;59358;52.134;5.596;2023-04-25T00:28:18;28.38;;;9.30;;
19205;SDS011;59358;52.134;5.596;2023-04-25T00:30:45;29.23;;;9.32;;
19205;SDS011;59358;52.134;5.596;2023-04-25T00:33:14;33.28;;;9.65;;
19205;SDS011;59358;52.134;5.596;2023-04-25T00:35:41;40.38;;;9.75;;
19205;SDS011;59358;52.134;5.596;2023-04-25T00:38:08;29.48;;;9.05;;
19205;SDS011;59358;52.134;5.596;2023-04-25T00:40:35;34.47;;;9.68;;
19205;SDS011;59358;52.134;5.596;2023-04-25T00:43:02;46.83;;;10.85;;
19205;SDS011;59358;52.134;5.596;2023-04-25T00:45:29;50.05;;;13.98;;
19205;SDS011;59358;52.134;5.596;2023-04-25T00:47:56;39.40;;;9.18;;
19205;SDS011;59358;52.134;5.596;2023-04-25T00:50:25;30.23;;;9.18;;
19205;SDS011;59358;52.134;5.596;2023-04-25T00:52:51;30.65;;;9.80;;
19205;SDS011;59358;52.134;5.596;2023-04-25T00:55:18;51.08;;;12.48;;
19205;SDS011;59358;52.134;5.596;2023-04-25T00:57:46;28.25;;;10.43;;
19205;SDS011;59358;52.134;5.596;2023-04-25T01:00:13;36.22;;;9.80;;
19205;SDS011;59358;52.134;5.596;2023-04-25T01:02:40;35.78;;;10.60;;
19205;SDS011;59358;52.134;5.596;2023-04-25T01:05:08;34.35;;;10.10;;
19205;SDS011;59358;52.134;5.596;2023-04-25T01:07:36;35.95;;;10.57;;
19205;SDS011;59358;52.134;5.596;2023-04-25T01:10:04;29.80;;;8.70;;
19205;SDS011;59358;52.134;5.596;2023-04-25T01:12:32;36.30;;;9.43;;
19205;SDS011;59358;52.134;5.596;2023-04-25T01:14:59;31.45;;;9.52;;
19205;SDS011;59358;52.134;5.596;2023-04-25T01:17:26;34.40;;;10.45;;
19205;SDS011;59358;52.134;5.596;2023-04-25T01:19:54;34.70;;;9.48;;
19205;SDS011;59358;52.134;5.596;2023-04-25T01:22:22;39.25;;;10.63;;
19205;SDS011;59358;52.134;5.596;2023-04-25T01:24:56;37.65;;;9.35;;
19205;SDS011;59358;52.134;5.596;2023-04-25T01:27:23;34.63;;;9.93;;
19205;SDS011;59358;52.134;5.596;2023-04-25T01:29:51;45.45;;;10.15;;
19205;SDS011;59358;52.134;5.596;2023-04-25T01:32:20;34.38;;;11.15;;
19205;SDS011;59358;52.134;5.596;2023-04-25T01:34:48;33.78;;;9.88;;
19205;SDS011;59358;52.134;5.596;2023-04-25T01:37:16;30.27;;;9.98;;
19205;SDS011;59358;52.134;5.596;2023-04-25T01:39:45;34.42;;;8.35;;
19205;SDS011;59358;52.134;5.596;2023-04-25T01:42:13;34.75;;;9.02;;
19205;SDS011;59358;52.134;5.596;2023-04-25T01:44:41;34.25;;;9.10;;
19205;SDS011;59358;52.134;5.596;2023-04-25T01:47:07;29.70;;;10.02;;
19205;SDS011;59358;52.134;5.596;2023-04-25T01:49:34;38.38;;;10.23;;
19205;SDS011;59358;52.134;5.596;2023-04-25T01:52:01;31.38;;;8.73;;
19205;SDS011;59358;52.134;5.596;2023-04-25T01:54:28;32.72;;;10.27;;
19205;SDS011;59358;52.134;5.596;2023-04-25T01:56:58;32.33;;;9.20;;
19205;SDS011;59358;52.134;5.596;2023-04-25T01:59:25;34.53;;;9.10;;
19205;SDS011;59358;52.134;5.596;2023-04-25T02:01:51;29.05;;;9.80;;
19205;SDS011;59358;52.134;5.596;2023-04-25T02:04:18;26.85;;;8.30;;
19205;SDS011;59358;52.134;5.596;2023-04-25T02:06:45;34.55;;;7.90;;
19205;SDS011;59358;52.134;5.596;2023-04-25T02:09:12;33.20;;;9.48;;
19205;SDS011;59358;52.134;5.596;2023-04-25T02:11:41;27.17;;;8.18;;
19205;SDS011;59358;52.134;5.596;2023-04-25T02:14:11;27.90;;;7.68;;
19205;SDS011;59358;52.134;5.596;2023-04-25T02:16:37;32.08;;;8.40;;
19205;SDS011;59358;52.134;5.596;2023-04-25T02:19:06;31.88;;;7.78;;
19205;SDS011;59358;52.134;5.596;2023-04-25T02:21:32;26.35;;;8.25;;
19205;SDS011;59358;52.134;5.596;2023-04-25T02:24:00;27.55;;;7.45;;
19205;SDS011;59358;52.134;5.596;2023-04-25T02:26:27;28.05;;;8.32;;
19205;SDS011;59358;52.134;5.596;2023-04-25T02:28:55;23.80;;;7.55;;
19205;SDS011;59358;52.134;5.596;2023-04-25T02:31:24;25.55;;;8.65;;
19205;SDS011;59358;52.134;5.596;2023-04-25T02:33:51;34.58;;;7.28;;
19205;SDS011;59358;52.134;5.596;2023-04-25T02:36:17;27.90;;;7.32;;
19205;SDS011;59358;52.134;5.596;2023-04-25T02:38:44;25.63;;;7.63;;
19205;SDS011;59358;52.134;5.596;2023-04-25T02:41:11;24.67;;;7.22;;
19205;SDS011;59358;52.134;5.596;2023-04-25T02:43:38;33.25;;;8.57;;
19205;SDS011;59358;52.134;5.596;2023-04-25T02:46:05;34.20;;;9.00;;
19205;SDS011;59358;52.134;5.596;2023-04-25T02:48:33;28.80;;;7.95;;
19205;SDS011;59358;52.134;5.596;2023-04-25T02:51:00;31.60;;;8.23;;
19205;SDS011;59358;52.134;5.596;2023-04-25T02:53:27;22.60;;;7.90;;
19205;SDS011;59358;52.134;5.596;2023-04-25T02:55:54;25.50;;;7.93;;
19205;SDS011;59358;52.134;5.596;2023-04-25T02:58:23;36.47;;;9.75;;
19205;SDS011;59358;52.134;5.596;2023-04-25T03:00:50;35.05;;;8.30;;
19205;SDS011;59358;52.134;5.596;2023-04-25T03:03:17;24.30;;;8.60;;
19205;SDS011;59358;52.134;5.596;2023-04-25T03:05:47;37.65;;;9.07;;
19205;SDS011;59358;52.134;5.596;2023-04-25T03:08:15;28.83;;;8.95;;
19205;SDS011;59358;52.134;5.596;2023-04-25T03:10:42;25.95;;;9.13;;
19205;SDS011;59358;52.134;5.596;2023-04-25T03:13:09;32.50;;;9.55;;
19205;SDS011;59358;52.134;5.596;2023-04-25T03:15:36;20.40;;;8.85;;
19205;SDS011;59358;52.134;5.596;2023-04-25T03:18:03;23.80;;;10.00;;
19205;SDS011;59358;52.134;5.596;2023-04-25T03:20:30;31.20;;;9.10;;
19205;SDS011;59358;52.134;5.596;2023-04-25T03:22:58;35.97;;;9.30;;
19205;SDS011;59358;52.134;5.596;2023-04-25T03:25:25;43.13;;;10.68;;
19205;SDS011;59358;52.134;5.596;2023-04-25T03:27:52;35.42;;;9.75;;
19205;SDS011;59358;52.134;5.596;2023-04-25T03:30:19;42.83;;;10.63;;
19205;SDS011;59358;52.134;5.596;2023-04-25T03:32:46;27.25;;;9.23;;
19205;SDS011;59358;52.134;5.596;2023-04-25T03:35:12;35.25;;;9.43;;
19205;SDS011;59358;52.134;5.596;2023-04-25T03:37:40;39.17;;;11.25;;
19205;SDS011;59358;52.134;5.596;2023-04-25T03:40:12;26.85;;;9.35;;
19205;SDS011;59358;52.134;5.596;2023-04-25T03:42:39;34.33;;;10.10;;
19205;SDS011;59358;52.134;5.596;2023-04-25T03:45:06;37.72;;;10.82;;
19205;SDS011;59358;52.134;5.596;2023-04-25T03:47:33;34.03;;;9.98;;
19205;SDS011;59358;52.134;5.596;2023-04-25T03:50:00;28.67;;;9.70;;
19205;SDS011;59358;52.134;5.596;2023-04-25T03:52:27;40.78;;;9.93;;
19205;SDS011;59358;52.134;5.596;2023-04-25T03:54:55;25.73;;;9.15;;
19205;SDS011;59358;52.134;5.596;2023-04-25T03:57:24;30.45;;;8.93;;
19205;SDS011;59358;52.134;5.596;2023-04-25T03:59:50;39.67;;;10.68;;
19205;SDS011;59358;52.134;5.596;2023-04-25T04:02:17;36.92;;;9.23;;
19205;SDS011;59358;52.134;5.596;2023-04-25T04:04:44;30.65;;;10.32;;
19205;SDS011;59358;52.134;5.596;2023-04-25T04:07:12;38.65;;;8.73;;
19205;SDS011;59358;52.134;5.596;2023-04-25T04:09:39;34.63;;;9.25;;
19205;SDS011;59358;52.134;5.596;2023-04-25T04:12:06;34.42;;;9.02;;
19205;SDS011;59358;52.134;5.596;2023-04-25T04:14:34;23.17;;;8.23;;
19205;SDS011;59358;52.134;5.596;2023-04-25T04:17:01;34.80;;;8.98;;
19205;SDS011;59358;52.134;5.596;2023-04-25T04:19:28;32.80;;;8.05;;
19205;SDS011;59358;52.134;5.596;2023-04-25T04:21:54;25.88;;;9.18;;
19205;SDS011;59358;52.134;5.596;2023-04-25T04:24:21;24.42;;;8.48;;
19205;SDS011;59358;52.134;5.596;2023-04-25T04:26:49;29.38;;;8.07;;
19205;SDS011;59358;52.134;5.596;2023-04-25T04:29:17;26.05;;;7.13;;
19205;SDS011;59358;52.134;5.596;2023-04-25T04:31:48;25.27;;;8.15;;
19205;SDS011;59358;52.134;5.596;2023-04-25T04:34:15;40.40;;;8.85;;
19205;SDS011;59358;52.134;5.596;2023-04-25T04:36:42;30.42;;;8.95;;
19205;SDS011;59358;52.134;5.596;2023-04-25T04:39:10;23.40;;;8.48;;
19205;SDS011;59358;52.134;5.596;2023-04-25T04:41:36;27.05;;;9.07;;
19205;SDS011;59358;52.134;5.596;2023-04-25T04:44:04;22.15;;;7.38;;
19205;SDS011;59358;52.134;5.596;2023-04-25T04:46:31;33.08;;;7.88;;
19205;SDS011;59358;52.134;5.596;2023-04-25T04:49:04;28.48;;;7.10;;
19205;SDS011;59358;52.134;5.596;2023-04-25T04:51:30;24.38;;;6.95;;
19205;SDS011;59358;52.134;5.596;2023-04-25T04:53:58;29.17;;;6.88;;
19205;SDS011;59358;52.134;5.596;2023-04-25T04:56:27;22.13;;;7.20;;
19205;SDS011;59358;52.134;5.596;2023-04-25T04:58:54;18.60;;;7.05;;
19205;SDS011;59358;52.134;5.596;2023-04-25T05:01:25;19.92;;;6.30;;
19205;SDS011;59358;52.134;5.596;2023-04-25T05:07:08;17.10;;;5.90;;
19205;SDS011;59358;52.134;5.596;2023-04-25T05:12:55;18.92;;;6.18;;
19205;SDS011;59358;52.134;5.596;2023-04-25T05:15:21;20.88;;;5.53;;
19205;SDS011;59358;52.134;5.596;2023-04-25T05:17:48;15.55;;;5.18;;
19205;SDS011;59358;52.134;5.596;2023-04-25T05:20:15;14.63;;;5.03;;
19205;SDS011;59358;52.134;5.596;2023-04-25T05:22:45;17.63;;;5.38;;
19205;SDS011;59358;52.134;5.596;2023-04-25T05:25:12;15.15;;;4.15;;
19205;SDS011;59358;52.134;5.596;2023-04-25T05:27:39;11.93;;;4.70;;
19205;SDS011;59358;52.134;5.596;2023-04-25T05:30:06;16.35;;;4.78;;
19205;SDS011;59358;52.134;5.596;2023-04-25T05:32:34;11.55;;;4.32;;
19205;SDS011;59358;52.134;5.596;2023-04-25T05:35:00;12.45;;;4.40;;
19205;SDS011;59358;52.134;5.596;2023-04-25T05:37:27;9.20;;;4.00;;
19205;SDS011;59358;52.134;5.596;2023-04-25T05:39:56;10.13;;;3.90;;
19205;SDS011;59358;52.134;5.596;2023-04-25T05:42:33;30.98;;;16.27;;
19205;SDS011;59358;52.134;5.596;2023-04-25T05:44:59;10.50;;;4.47;;
19205;SDS011;59358;52.134;5.596;2023-04-25T05:47:27;12.60;;;4.05;;
19205;SDS011;59358;52.134;5.596;2023-04-25T05:49:53;12.13;;;3.88;;
19205;SDS011;59358;52.134;5.596;2023-04-25T05:52:20;10.27;;;3.13;;
19205;SDS011;59358;52.134;5.596;2023-04-25T05:54:47;12.18;;;4.13;;
19205;SDS011;59358;52.134;5.596;2023-04-25T05:57:23;10.80;;;4.18;;
19205;SDS011;59358;52.134;5.596;2023-04-25T05:59:51;13.27;;;4.40;;
19205;SDS011;59358;52.134;5.596;2023-04-25T06:02:18;12.80;;;5.25;;
19205;SDS011;59358;52.134;5.596;2023-04-25T06:04:46;18.80;;;4.18;;
19205;SDS011;59358;52.134;5.596;2023-04-25T06:07:13;15.38;;;5.18;;
19205;SDS011;59358;52.134;5.596;2023-04-25T06:09:39;18.80;;;3.90;;
19205;SDS011;59358;52.134;5.596;2023-04-25T06:12:06;11.73;;;3.28;;
19205;SDS011;59358;52.134;5.596;2023-04-25T06:14:35;13.10;;;3.47;;
19205;SDS011;59358;52.134;5.596;2023-04-25T06:17:02;11.70;;;2.80;;
19205;SDS011;59358;52.134;5.596;2023-04-25T06:19:31;11.90;;;4.55;;
19205;SDS011;59358;52.134;5.596;2023-04-25T06:21:58;10.00;;;4.07;;
19205;SDS011;59358;52.134;5.596;2023-04-25T06:24:25;13.40;;;3.88;;
19205;SDS011;59358;52.134;5.596;2023-04-25T06:26:52;12.82;;;4.60;;
19205;SDS011;59358;52.134;5.596;2023-04-25T06:29:19;10.18;;;3.00;;
19205;SDS011;59358;52.134;5.596;2023-04-25T06:31:47;12.95;;;3.45;;
19205;SDS011;59358;52.134;5.596;2023-04-25T06:34:14;7.22;;;3.25;;
19205;SDS011;59358;52.134;5.596;2023-04-25T06:36:41;8.55;;;3.35;;
19205;SDS011;59358;52.134;5.596;2023-04-25T06:39:09;10.45;;;3.60;;
19205;SDS011;59358;52.134;5.596;2023-04-25T06:41:36;14.20;;;5.07;;
19205;SDS011;59358;52.134;5.596;2023-04-25T06:44:02;11.85;;;3.28;;
19205;SDS011;59358;52.134;5.596;2023-04-25T06:46:29;10.88;;;3.20;;
19205;SDS011;59358;52.134;5.596;2023-04-25T06:48:57;13.95;;;3.22;;
19205;SDS011;59358;52.134;5.596;2023-04-25T06:51:24;11.20;;;3.15;;
19205;SDS011;59358;52.134;5.596;2023-04-25T06:53:54;11.43;;;2.70;;
19205;SDS011;59358;52.134;5.596;2023-04-25T06:56:21;10.52;;;2.78;;
19205;SDS011;59358;52.134;5.596;2023-04-25T06:58:48;12.10;;;3.55;;
19205;SDS011;59358;52.134;5.596;2023-04-25T07:01:15;14.77;;;3.22;;
19205;SDS011;59358;52.134;5.596;2023-04-25T07:03:42;9.45;;;2.72;;
19205;SDS011;59358;52.134;5.596;2023-04-25T07:06:10;13.10;;;2.70;;
19205;SDS011;59358;52.134;5.596;2023-04-25T07:08:36;11.73;;;3.60;;
19205;SDS011;59358;52.134;5.596;2023-04-25T07:11:03;7.43;;;2.65;;
19205;SDS011;59358;52.134;5.596;2023-04-25T07:13:30;13.80;;;2.92;;
19205;SDS011;59358;52.134;5.596;2023-04-25T07:15:57;13.85;;;3.00;;
19205;SDS011;59358;52.134;5.596;2023-04-25T07:18:25;12.88;;;2.70;;
19205;SDS011;59358;52.134;5.596;2023-04-25T07:20:51;14.52;;;2.75;;
19205;SDS011;59358;52.134;5.596;2023-04-25T07:23:20;16.60;;;2.83;;
19205;SDS011;59358;52.134;5.596;2023-04-25T07:25:46;12.93;;;2.83;;
19205;SDS011;59358;52.134;5.596;2023-04-25T07:28:13;13.68;;;2.88;;
19205;SDS011;59358;52.134;5.596;2023-04-25T07:30:40;8.40;;;2.50;;
19205;SDS011;59358;52.134;5.596;2023-04-25T07:33:07;15.43;;;2.88;;
19205;SDS011;59358;52.134;5.596;2023-04-25T07:35:34;12.68;;;3.35;;
19205;SDS011;59358;52.134;5.596;2023-04-25T07:38:01;10.50;;;2.55;;
19205;SDS011;59358;52.134;5.596;2023-04-25T07:40:33;9.43;;;2.67;;
19205;SDS011;59358;52.134;5.596;2023-04-25T07:43:00;8.95;;;2.50;;
19205;SDS011;59358;52.134;5.596;2023-04-25T07:45:27;9.25;;;2.30;;
19205;SDS011;59358;52.134;5.596;2023-04-25T07:47:57;12.65;;;2.47;;
19205;SDS011;59358;52.134;5.596;2023-04-25T07:50:24;13.55;;;2.13;;
19205;SDS011;59358;52.134;5.596;2023-04-25T07:52:51;16.73;;;2.60;;
19205;SDS011;59358;52.134;5.596;2023-04-25T07:55:18;12.30;;;2.45;;
19205;SDS011;59358;52.134;5.596;2023-04-25T07:57:50;19.50;;;2.75;;
19205;SDS011;59358;52.134;5.596;2023-04-25T08:00:17;11.32;;;3.15;;
19205;SDS011;59358;52.134;5.596;2023-04-25T08:02:44;11.85;;;1.98;;
19205;SDS011;59358;52.134;5.596;2023-04-25T08:05:11;17.05;;;2.08;;
19205;SDS011;59358;52.134;5.596;2023-04-25T08:07:39;8.77;;;1.83;;
19205;SDS011;59358;52.134;5.596;2023-04-25T08:10:07;8.82;;;1.80;;
19205;SDS011;59358;52.134;5.596;2023-04-25T08:12:34;18.55;;;2.13;;
19205;SDS011;59358;52.134;5.596;2023-04-25T08:15:03;11.10;;;1.88;;
19205;SDS011;59358;52.134;5.596;2023-04-25T08:17:31;9.73;;;2.03;;
19205;SDS011;59358;52.134;5.596;2023-04-25T08:19:58;10.63;;;2.00;;
19205;SDS011;59358;52.134;5.596;2023-04-25T08:22:25;5.72;;;2.08;;
19205;SDS011;59358;52.134;5.596;2023-04-25T08:24:52;12.88;;;3.13;;
19205;SDS011;59358;52.134;5.596;2023-04-25T08:27:19;14.52;;;2.92;;
19205;SDS011;59358;52.134;5.596;2023-04-25T08:29:46;10.52;;;2.83;;
19205;SDS011;59358;52.134;5.596;2023-04-25T08:32:15;18.13;;;2.75;;
19205;SDS011;59358;52.134;5.596;2023-04-25T08:34:41;19.90;;;3.05;;
19205;SDS011;59358;52.134;5.596;2023-04-25T08:37:09;12.45;;;3.65;;
19205;SDS011;59358;52.134;5.596;2023-04-25T08:39:36;13.68;;;3.92;;
19205;SDS011;59358;52.134;5.596;2023-04-25T08:42:05;11.77;;;3.22;;
19205;SDS011;59358;52.134;5.596;2023-04-25T08:44:33;7.60;;;2.75;;
19205;SDS011;59358;52.134;5.596;2023-04-25T08:47:01;11.77;;;2.38;;
19205;SDS011;59358;52.134;5.596;2023-04-25T08:49:30;8.80;;;2.35;;
19205;SDS011;59358;52.134;5.596;2023-04-25T08:51:59;8.57;;;2.28;;
19205;SDS011;59358;52.134;5.596;2023-04-25T08:54:27;6.53;;;2.42;;
19205;SDS011;59358;52.134;5.596;2023-04-25T08:56:56;11.70;;;1.90;;
19205;SDS011;59358;52.134;5.596;2023-04-25T08:59:24;11.95;;;2.92;;
19205;SDS011;59358;52.134;5.596;2023-04-25T09:01:51;9.02;;;2.20;;
19205;SDS011;59358;52.134;5.596;2023-04-25T09:04:21;6.63;;;2.10;;
19205;SDS011;59358;52.134;5.596;2023-04-25T09:06:49;10.00;;;2.20;;
19205;SDS011;59358;52.134;5.596;2023-04-25T09:09:16;10.32;;;2.17;;
19205;SDS011;59358;52.134;5.596;2023-04-25T09:11:43;6.32;;;2.05;;
19205;SDS011;59358;52.134;5.596;2023-04-25T09:14:10;12.88;;;4.85;;
19205;SDS011;59358;52.134;5.596;2023-04-25T09:19:27;7.00;;;2.15;;
19205;SDS011;59358;52.134;5.596;2023-04-25T09:21:57;10.05;;;1.77;;
19205;SDS011;59358;52.134;5.596;2023-04-25T09:24:31;6.60;;;1.92;;
19205;SDS011;59358;52.134;5.596;2023-04-25T09:26:59;8.70;;;2.95;;
19205;SDS011;59358;52.134;5.596;2023-04-25T09:29:29;9.73;;;2.20;;
19205;SDS011;59358;52.134;5.596;2023-04-25T09:32:10;6.35;;;1.83;;
19205;SDS011;59358;52.134;5.596;2023-04-25T09:34:41;5.57;;;1.40;;
19205;SDS011;59358;52.134;5.596;2023-04-25T09:37:11;5.10;;;1.55;;
19205;SDS011;59358;52.134;5.596;2023-04-25T09:39:38;8.35;;;1.40;;
19205;SDS011;59358;52.134;5.596;2023-04-25T09:42:05;4.80;;;1.30;;
19205;SDS011;59358;52.134;5.596;2023-04-25T09:44:32;6.88;;;2.25;;
19205;SDS011;59358;52.134;5.596;2023-04-25T09:46:58;5.80;;;1.70;;
19205;SDS011;59358;52.134;5.596;2023-04-25T09:49:27;7.95;;;1.60;;
19205;SDS011;59358;52.134;5.596;2023-04-25T09:51:54;11.30;;;2.05;;
19205;SDS011;59358;52.134;5.596;2023-04-25T09:54:24;8.00;;;1.77;;
19205;SDS011;59358;52.134;5.596;2023-04-25T09:56:51;7.90;;;1.92;;
19205;SDS011;59358;52.134;5.596;2023-04-25T09:59:20;11.10;;;2.45;;
19205;SDS011;59358;52.134;5.596;2023-04-25T10:01:48;11.60;;;2.38;;
19205;SDS011;59358;52.134;5.596;2023-04-25T10:04:19;5.65;;;2.10;;
19205;SDS011;59358;52.134;5.596;2023-04-25T10:06:51;7.97;;;1.70;;
19205;SDS011;59358;52.134;5.596;2023-04-25T10:09:20;7.15;;;1.40;;
19205;SDS011;59358;52.134;5.596;2023-04-25T10:11:49;11.07;;;5.75;;
19205;SDS011;59358;52.134;5.596;2023-04-25T10:14:17;11.90;;;6.25;;
19205;SDS011;59358;52.134;5.596;2023-04-25T10:16:45;9.10;;;2.80;;
19205;SDS011;59358;52.134;5.596;2023-04-25T10:19:14;7.13;;;2.03;;
19205;SDS011;59358;52.134;5.596;2023-04-25T10:21:44;5.85;;;1.73;;
19205;SDS011;59358;52.134;5.596;2023-04-25T10:24:18;8.63;;;2.35;;
19205;SDS011;59358;52.134;5.596;2023-04-25T10:26:46;8.38;;;2.40;;
19205;SDS011;59358;52.134;5.596;2023-04-25T10:29:15;4.93;;;2.38;;
19205;SDS011;59358;52.134;5.596;2023-04-25T10:31:48;9.35;;;2.35;;
19205;SDS011;59358;52.134;5.596;2023-04-25T10:34:15;5.53;;;1.90;;
19205;SDS011;59358;52.134;5.596;2023-04-25T10:36:42;6.35;;;2.40;;
19205;SDS011;59358;52.134;5.596;2023-04-25T10:39:14;7.30;;;1.95;;
19205;SDS011;59358;52.134;5.596;2023-04-25T10:41:52;7.60;;;2.53;;
19205;SDS011;59358;52.134;5.596;2023-04-25T10:44:21;9.15;;;2.22;;
19205;SDS011;59358;52.134;5.596;2023-04-25T10:46:48;7.57;;;2.28;;
19205;SDS011;59358;52.134;5.596;2023-04-25T10:49:31;6.97;;;1.65;;
19205;SDS011;59358;52.134;5.596;2023-04-25T10:52:12;3.78;;;1.48;;
19205;SDS011;59358;52.134;5.596;2023-04-25T10:54:46;6.75;;;1.40;;
19205;SDS011;59358;52.134;5.596;2023-04-25T10:57:26;9.55;;;2.13;;
19205;SDS011;59358;52.134;5.596;2023-04-25T11:00:01;5.07;;;1.48;;
19205;SDS011;59358;52.134;5.596;2023-04-25T11:02:36;7.32;;;2.33;;
19205;SDS011;59358;52.134;5.596;2023-04-25T11:05:04;4.60;;;1.50;;
19205;SDS011;59358;52.134;5.596;2023-04-25T11:07:33;4.57;;;1.67;;
19205;SDS011;59358;52.134;5.596;2023-04-25T11:10:05;5.60;;;1.27;;
19205;SDS011;59358;52.134;5.596;2023-04-25T11:12:32;8.50;;;1.85;;
19205;SDS011;59358;52.134;5.596;2023-04-25T11:15:01;8.90;;;1.40;;
19205;SDS011;59358;52.134;5.596;2023-04-25T11:17:29;5.32;;;1.50;;
19205;SDS011;59358;52.134;5.596;2023-04-25T11:19:56;5.65;;;2.10;;
19205;SDS011;59358;52.134;5.596;2023-04-25T11:22:23;5.20;;;1.45;;
19205;SDS011;59358;52.134;5.596;2023-04-25T11:24:52;4.57;;;1.55;;
19205;SDS011;59358;52.134;5.596;2023-04-25T11:27:19;4.57;;;2.10;;
19205;SDS011;59358;52.134;5.596;2023-04-25T11:29:49;5.85;;;1.67;;
19205;SDS011;59358;52.134;5.596;2023-04-25T11:32:18;5.72;;;1.50;;
19205;SDS011;59358;52.134;5.596;2023-04-25T11:34:45;5.78;;;1.75;;
19205;SDS011;59358;52.134;5.596;2023-04-25T11:37:13;5.47;;;4.75;;
19205;SDS011;59358;52.134;5.596;2023-04-25T11:39:43;13.23;;;5.88;;
19205;SDS011;59358;52.134;5.596;2023-04-25T11:42:12;8.30;;;3.22;;
19205;SDS011;59358;52.134;5.596;2023-04-25T11:44:39;7.53;;;2.42;;
19205;SDS011;59358;52.134;5.596;2023-04-25T11:47:06;7.82;;;2.10;;
19205;SDS011;59358;52.134;5.596;2023-04-25T11:49:34;10.30;;;1.75;;
19205;SDS011;59358;52.134;5.596;2023-04-25T11:52:01;7.13;;;2.42;;
19205;SDS011;59358;52.134;5.596;2023-04-25T11:54:28;7.35;;;1.92;;
19205;SDS011;59358;52.134;5.596;2023-04-25T11:56:55;8.05;;;2.13;;
19205;SDS011;59358;52.134;5.596;2023-04-25T11:59:23;6.10;;;1.75;;
19205;SDS011;59358;52.134;5.596;2023-04-25T12:01:50;8.77;;;1.80;;
19205;SDS011;59358;52.134;5.596;2023-04-25T12:04:17;14.82;;;2.92;;
19205;SDS011;59358;52.134;5.596;2023-04-25T12:06:47;8.43;;;1.77;;
19205;SDS011;59358;52.134;5.596;2023-04-25T12:09:15;5.50;;;1.58;;
19205;SDS011;59358;52.134;5.596;2023-04-25T12:11:44;16.17;;;3.28;;
19205;SDS011;59358;52.134;5.596;2023-04-25T12:14:12;7.45;;;2.20;;
19205;SDS011;59358;52.134;5.596;2023-04-25T12:16:46;3.70;;;1.35;;
19205;SDS011;59358;52.134;5.596;2023-04-25T12:19:14;6.30;;;2.33;;
19205;SDS011;59358;52.134;5.596;2023-04-25T12:21:42;3.95;;;1.83;;
19205;SDS011;59358;52.134;5.596;2023-04-25T12:24:11;7.78;;;2.33;;
19205;SDS011;59358;52.134;5.596;2023-04-25T12:26:46;6.82;;;2.40;;
19205;SDS011;59358;52.134;5.596;2023-04-25T12:29:17;6.57;;;2.25;;
19205;SDS011;59358;52.134;5.596;2023-04-25T12:31:45;5.93;;;2.13;;
19205;SDS011;59358;52.134;5.596;2023-04-25T12:34:12;5.57;;;1.42;;
19205;SDS011;59358;52.134;5.596;2023-04-25T12:36:39;6.80;;;1.60;;
19205;SDS011;59358;52.134;5.596;2023-04-25T12:39:06;4.25;;;1.50;;
19205;SDS011;59358;52.134;5.596;2023-04-25T12:41:34;6.13;;;1.60;;
19205;SDS011;59358;52.134;5.596;2023-04-25T12:44:02;3.95;;;1.33;;
19205;SDS011;59358;52.134;5.596;2023-04-25T12:46:29;5.93;;;2.03;;
19205;SDS011;59358;52.134;5.596;2023-04-25T12:48:56;7.22;;;2.17;;
19205;SDS011;59358;52.134;5.596;2023-04-25T12:51:23;9.02;;;1.90;;
19205;SDS011;59358;52.134;5.596;2023-04-25T12:53:51;2.97;;;1.40;;
19205;SDS011;59358;52.134;5.596;2023-04-25T12:56:18;3.90;;;1.20;;
19205;SDS011;59358;52.134;5.596;2023-04-25T12:58:46;3.13;;;1.35;;
19205;SDS011;59358;52.134;5.596;2023-04-25T13:01:14;5.60;;;1.55;;
19205;SDS011;59358;52.134;5.596;2023-04-25T13:03:40;3.17;;;1.60;;
19205;SDS011;59358;52.134;5.596;2023-04-25T13:06:07;4.07;;;1.05;;
19205;SDS011;59358;52.134;5.596;2023-04-25T13:08:34;2.20;;;1.13;;
19205;SDS011;59358;52.134;5.596;2023-04-25T13:11:01;2.60;;;1.40;;
19205;SDS011;59358;52.134;5.596;2023-04-25T13:13:29;4.60;;;1.15;;
19205;SDS011;59358;52.134;5.596;2023-04-25T13:15:58;5.10;;;1.02;;
19205;SDS011;59358;52.134;5.596;2023-04-25T13:18:24;2.00;;;1.10;;
19205;SDS011;59358;52.134;5.596;2023-04-25T13:20:51;2.60;;;1.05;;
19205;SDS011;59358;52.134;5.596;2023-04-25T13:23:18;2.08;;;1.00;;
19205;SDS011;59358;52.134;5.596;2023-04-25T13:25:46;6.80;;;1.15;;
19205;SDS011;59358;52.134;5.596;2023-04-25T13:28:13;6.35;;;1.52;;
19205;SDS011;59358;52.134;5.596;2023-04-25T13:30:40;2.08;;;1.00;;
19205;SDS011;59358;52.134;5.596;2023-04-25T13:33:08;9.70;;;2.00;;
19205;SDS011;59358;52.134;5.596;2023-04-25T13:35:36;7.55;;;1.58;;
19205;SDS011;59358;52.134;5.596;2023-04-25T13:38:03;7.80;;;2.15;;
19205;SDS011;59358;52.134;5.596;2023-04-25T13:40:30;6.93;;;1.65;;
19205;SDS011;59358;52.134;5.596;2023-04-25T13:42:58;6.32;;;1.98;;
19205;SDS011;59358;52.134;5.596;2023-04-25T13:45:25;7.63;;;1.90;;
19205;SDS011;59358;52.134;5.596;2023-04-25T13:47:52;10.20;;;2.25;;
19205;SDS011;59358;52.134;5.596;2023-04-25T13:50:20;6.65;;;1.92;;
19205;SDS011;59358;52.134;5.596;2023-04-25T13:52:46;6.20;;;2.13;;
19205;SDS011;59358;52.134;5.596;2023-04-25T13:55:13;4.75;;;1.63;;
19205;SDS011;59358;52.134;5.596;2023-04-25T13:57:41;6.97;;;1.70;;
19205;SDS011;59358;52.134;5.596;2023-04-25T14:00:09;5.40;;;1.40;;
19205;SDS011;59358;52.134;5.596;2023-04-25T14:02:36;9.27;;;1.55;;
19205;SDS011;59358;52.134;5.596;2023-04-25T14:05:04;5.07;;;1.40;;
19205;SDS011;59358;52.134;5.596;2023-04-25T14:07:33;9.30;;;1.60;;
19205;SDS011;59358;52.134;5.596;2023-04-25T14:09:59;4.22;;;1.45;;
19205;SDS011;59358;52.134;5.596;2023-04-25T14:12:26;8.70;;;1.55;;
19205;SDS011;59358;52.134;5.596;2023-04-25T14:14:53;7.30;;;1.88;;
19205;SDS011;59358;52.134;5.596;2023-04-25T14:17:20;7.13;;;1.73;;
19205;SDS011;59358;52.134;5.596;2023-04-25T14:19:47;6.07;;;1.60;;
19205;SDS011;59358;52.134;5.596;2023-04-25T14:22:14;3.80;;;1.23;;
19205;SDS011;59358;52.134;5.596;2023-04-25T14:24:42;4.63;;;1.55;;
19205;SDS011;59358;52.134;5.596;2023-04-25T14:27:09;5.80;;;1.70;;
19205;SDS011;59358;52.134;5.596;2023-04-25T14:29:36;5.57;;;1.83;;
19205;SDS011;59358;52.134;5.596;2023-04-25T14:32:03;3.78;;;1.23;;
19205;SDS011;59358;52.134;5.596;2023-04-25T14:34:31;4.35;;;2.05;;
19205;SDS011;59358;52.134;5.596;2023-04-25T14:36:58;4.72;;;1.45;;
19205;SDS011;59358;52.134;5.596;2023-04-25T14:39:25;6.80;;;1.48;;
19205;SDS011;59358;52.134;5.596;2023-04-25T14:41:53;4.07;;;1.50;;
19205;SDS011;59358;52.134;5.596;2023-04-25T14:44:21;4.53;;;1.38;;
19205;SDS011;59358;52.134;5.596;2023-04-25T14:46:48;7.25;;;1.85;;
19205;SDS011;59358;52.134;5.596;2023-04-25T14:49:16;12.65;;;2.25;;
19205;SDS011;59358;52.134;5.596;2023-04-25T14:51:43;6.47;;;1.80;;